Jamieson, Oregon
Current Conditions -  °F | °C
As of 2:53 PM on Saturday 25 Oct 2014 (Local Time) from KONO Reporting Station
Clear Clear  
Wind Chill: 56°   Ceiling: Unl
Heat Index: 56°   Visibility: 10mi
Dew Point: 48°   Wind: 5mph
Humidity: 75%   Direction: 60°ENE
Pressure: 29.78"   Gusts: NA
Location:  44.18°N, 117.44°W
Report Text: KONO 252053Z AUTO 06004KT 10SM CLR 13/09 A2978 RMK AO2 SLP089 T01330089 58017
Loading
Personal Weather Stations






























Interactive Weather Map
Tropical Storm Tracking
New forecast layout! Learn more

10-Day Weather Forecast

Advertisements
Track Severe Weather on mobile